PWSweather.com
Personal Weather Stations
Station Observations
IMAZOWIE6
WarszawaPL

WarszawaPL

Lat: 52.27957, Lon: 21.05489

Elevation: 100

Station Type: WS1080

http://stacjapogody.waw.pl/

High Low Average
Temperature 78.6°F25.9°C 59.5°F15.3°C 69.0°F20.6°C
Dew Point -164.9°F-109.4°C -166.8°F-110.4°C -165.9°F-109.9°C
Winds 2.0 mph 3.2 kmh Calm Calm Calm NCalm N
Wind Gusts 6.2 mph10.0 kmh -- 1.0 mph1.6 kmh
Humidity - - -
Pressure 29.57 in1001.4 mb 29.51 in999.3 mb -
Precipitation 0.00 in0.0 mm - -
Hour Temp Dew Point Humidity Winds Wind Gusts Pressure Precip Precip Rate Daily Precip Total
12:04 AM 64.0°F17.8°C -166.4°F-110.2°C - Calm Calm -- 29.51 in999.3 mb 0.00 in0.0 mm 0.00 in0.0 mm 0.00 in0.0 mm
12:19 AM 63.7°F17.6°C -166.4°F-110.2°C - Calm Calm -- 29.52 in999.7 mb 0.00 in0.0 mm 0.00 in0.0 mm 0.00 in0.0 mm
12:34 AM 63.0°F17.2°C -166.5°F-110.3°C - Calm Calm -- 29.52 in999.7 mb 0.00 in0.0 mm 0.00 in0.0 mm 0.00 in0.0 mm
12:49 AM 62.6°F17.0°C -166.5°F-110.3°C - Calm Calm -- 29.53 in1000.0 mb 0.00 in0.0 mm 0.00 in0.0 mm 0.00 in0.0 mm
01:04 AM 62.4°F16.9°C -166.6°F-110.3°C - Calm Calm -- 29.52 in999.7 mb 0.00 in0.0 mm 0.00 in0.0 mm 0.00 in0.0 mm
01:19 AM 61.9°F16.6°C -166.6°F-110.3°C - Calm Calm -- 29.53 in1000.0 mb 0.00 in0.0 mm 0.00 in0.0 mm 0.00 in0.0 mm
01:34 AM 61.5°F16.4°C -166.6°F-110.3°C - Calm Calm -- 29.52 in999.7 mb 0.00 in0.0 mm 0.00 in0.0 mm 0.00 in0.0 mm
01:49 AM 61.2°F16.2°C -166.7°F-110.4°C - Calm Calm -- 29.52 in999.7 mb 0.00 in0.0 mm 0.00 in0.0 mm 0.00 in0.0 mm
02:04 AM 60.6°F15.9°C -166.7°F-110.4°C - Calm Calm -- 29.53 in1000.0 mb 0.00 in0.0 mm 0.00 in0.0 mm 0.00 in0.0 mm
02:19 AM 60.4°F15.8°C -166.8°F-110.4°C - Calm Calm -- 29.53 in1000.0 mb 0.00 in0.0 mm 0.00 in0.0 mm 0.00 in0.0 mm
02:35 AM 60.1°F15.6°C -166.8°F-110.4°C - Calm Calm 0.6 mph1.0 kmh 29.53 in1000.0 mb 0.00 in0.0 mm 0.00 in0.0 mm 0.00 in0.0 mm
02:49 AM 59.5°F15.3°C -166.8°F-110.4°C - Calm Calm -- 29.54 in1000.3 mb 0.00 in0.0 mm 0.00 in0.0 mm 0.00 in0.0 mm
03:04 AM 59.7°F15.4°C -166.8°F-110.4°C - Calm Calm -- 29.54 in1000.3 mb 0.00 in0.0 mm 0.00 in0.0 mm 0.00 in0.0 mm
03:19 AM 59.5°F15.3°C -166.8°F-110.4°C - Calm Calm -- 29.55 in1000.7 mb 0.00 in0.0 mm 0.00 in0.0 mm 0.00 in0.0 mm
03:34 AM 60.3°F15.7°C -166.8°F-110.4°C - Calm Calm 1.4 mph2.3 kmh 29.55 in1000.7 mb 0.00 in0.0 mm 0.00 in0.0 mm 0.00 in0.0 mm
03:49 AM 61.0°F16.1°C -166.7°F-110.4°C - Calm Calm 1.4 mph2.3 kmh 29.54 in1000.3 mb 0.00 in0.0 mm 0.00 in0.0 mm 0.00 in0.0 mm
04:04 AM 63.0°F17.2°C -166.5°F-110.3°C - Calm Calm -- 29.54 in1000.3 mb 0.00 in0.0 mm 0.00 in0.0 mm 0.00 in0.0 mm
04:19 AM 65.5°F18.6°C -166.3°F-110.2°C - Calm Calm 0.6 mph1.0 kmh 29.55 in1000.7 mb 0.00 in0.0 mm 0.00 in0.0 mm 0.00 in0.0 mm
04:34 AM 62.6°F17.0°C -166.5°F-110.3°C - Calm Calm 0.6 mph1.0 kmh 29.55 in1000.7 mb 0.00 in0.0 mm 0.00 in0.0 mm 0.00 in0.0 mm
04:49 AM 63.9°F17.7°C -166.4°F-110.2°C - Calm Calm 0.6 mph1.0 kmh 29.55 in1000.7 mb 0.00 in0.0 mm 0.00 in0.0 mm 0.00 in0.0 mm
05:04 AM 66.9°F19.4°C -166.1°F-110.1°C - Calm Calm 2.0 mph3.2 kmh 29.55 in1000.7 mb 0.00 in0.0 mm 0.00 in0.0 mm 0.00 in0.0 mm
05:19 AM 71.1°F21.7°C -165.7°F-109.8°C - 0.6 mph N1.0 kmh N 3.4 mph5.5 kmh 29.55 in1000.7 mb 0.00 in0.0 mm 0.00 in0.0 mm 0.00 in0.0 mm
05:34 AM 73.2°F22.9°C -165.5°F-109.7°C - Calm Calm 1.4 mph2.3 kmh 29.55 in1000.7 mb 0.00 in0.0 mm 0.00 in0.0 mm 0.00 in0.0 mm
05:49 AM 72.3°F22.4°C -165.6°F-109.8°C - Calm Calm 0.6 mph1.0 kmh 29.55 in1000.7 mb 0.00 in0.0 mm 0.00 in0.0 mm 0.00 in0.0 mm
06:04 AM 72.9°F22.7°C -165.5°F-109.7°C - Calm Calm 1.4 mph2.3 kmh 29.55 in1000.7 mb 0.00 in0.0 mm 0.00 in0.0 mm 0.00 in0.0 mm
06:19 AM 74.3°F23.5°C -165.4°F-109.7°C - Calm Calm 0.6 mph1.0 kmh 29.55 in1000.7 mb 0.00 in0.0 mm 0.00 in0.0 mm 0.00 in0.0 mm
06:34 AM 75.7°F24.3°C -165.2°F-109.6°C - 0.6 mph N1.0 kmh N 3.4 mph5.5 kmh 29.55 in1000.7 mb 0.00 in0.0 mm 0.00 in0.0 mm 0.00 in0.0 mm
06:49 AM 77.2°F25.1°C -165.1°F-109.5°C - Calm Calm 2.0 mph3.2 kmh 29.55 in1000.7 mb 0.00 in0.0 mm 0.00 in0.0 mm 0.00 in0.0 mm
07:04 AM 77.7°F25.4°C -165.0°F-109.4°C - 0.6 mph N1.0 kmh N 2.8 mph4.5 kmh 29.55 in1000.7 mb 0.00 in0.0 mm 0.00 in0.0 mm 0.00 in0.0 mm
07:19 AM 78.6°F25.9°C -164.9°F-109.4°C - 2.0 mph N3.2 kmh N 5.4 mph8.7 kmh 29.55 in1000.7 mb 0.00 in0.0 mm 0.00 in0.0 mm 0.00 in0.0 mm
07:34 AM 74.3°F23.5°C -165.4°F-109.7°C - 1.4 mph N2.3 kmh N 3.4 mph5.5 kmh 29.56 in1001.0 mb 0.00 in0.0 mm 0.00 in0.0 mm 0.00 in0.0 mm
07:49 AM 71.1°F21.7°C -165.7°F-109.8°C - 1.4 mph N2.3 kmh N 4.0 mph6.4 kmh 29.56 in1001.0 mb 0.00 in0.0 mm 0.00 in0.0 mm 0.00 in0.0 mm
08:04 AM 75.2°F24.0°C -165.3°F-109.6°C - 2.0 mph N3.2 kmh N 5.4 mph8.7 kmh 29.56 in1001.0 mb 0.00 in0.0 mm 0.00 in0.0 mm 0.00 in0.0 mm
08:19 AM 77.2°F25.1°C -165.1°F-109.5°C - Calm Calm 1.4 mph2.3 kmh 29.56 in1001.0 mb 0.00 in0.0 mm 0.00 in0.0 mm 0.00 in0.0 mm
08:34 AM 77.9°F25.5°C -165.0°F-109.4°C - 1.4 mph N2.3 kmh N 3.4 mph5.5 kmh 29.57 in1001.4 mb 0.00 in0.0 mm 0.00 in0.0 mm 0.00 in0.0 mm
08:49 AM 76.6°F24.8°C -165.1°F-109.5°C - Calm Calm 0.6 mph1.0 kmh 29.56 in1001.0 mb 0.00 in0.0 mm 0.00 in0.0 mm 0.00 in0.0 mm
09:04 AM 74.7°F23.7°C -165.3°F-109.6°C - 0.6 mph N1.0 kmh N 3.4 mph5.5 kmh 29.56 in1001.0 mb 0.00 in0.0 mm 0.00 in0.0 mm 0.00 in0.0 mm
09:19 AM 75.9°F24.4°C -165.2°F-109.6°C - Calm Calm 2.0 mph3.2 kmh 29.56 in1001.0 mb 0.00 in0.0 mm 0.00 in0.0 mm 0.00 in0.0 mm
09:34 AM 75.9°F24.4°C -165.2°F-109.6°C - 0.6 mph N1.0 kmh N 3.4 mph5.5 kmh 29.56 in1001.0 mb 0.00 in0.0 mm 0.00 in0.0 mm 0.00 in0.0 mm
09:49 AM 74.7°F23.7°C -165.3°F-109.6°C - 0.6 mph N1.0 kmh N 2.0 mph3.2 kmh 29.56 in1001.0 mb 0.00 in0.0 mm 0.00 in0.0 mm 0.00 in0.0 mm
10:04 AM 75.0°F23.9°C -165.3°F-109.6°C - 1.4 mph N2.3 kmh N 4.0 mph6.4 kmh 29.56 in1001.0 mb 0.00 in0.0 mm 0.00 in0.0 mm 0.00 in0.0 mm
10:19 AM 73.9°F23.3°C -165.4°F-109.7°C - Calm Calm 2.0 mph3.2 kmh 29.56 in1001.0 mb 0.00 in0.0 mm 0.00 in0.0 mm 0.00 in0.0 mm
10:34 AM 75.6°F24.2°C -165.2°F-109.6°C - 1.4 mph N2.3 kmh N 2.8 mph4.5 kmh 29.55 in1000.7 mb 0.00 in0.0 mm 0.00 in0.0 mm 0.00 in0.0 mm
10:49 AM 75.9°F24.4°C -165.2°F-109.6°C - 1.4 mph N2.3 kmh N 6.2 mph10.0 kmh 29.56 in1001.0 mb 0.00 in0.0 mm 0.00 in0.0 mm 0.00 in0.0 mm
11:04 AM 74.3°F23.5°C -165.4°F-109.7°C - Calm Calm 1.4 mph2.3 kmh 29.56 in1001.0 mb 0.00 in0.0 mm 0.00 in0.0 mm 0.00 in0.0 mm
11:19 AM 72.5°F22.5°C -165.6°F-109.8°C - Calm Calm 1.4 mph2.3 kmh 29.56 in1001.0 mb 0.00 in0.0 mm 0.00 in0.0 mm 0.00 in0.0 mm
11:34 AM 73.2°F22.9°C -165.5°F-109.7°C - Calm Calm 0.6 mph1.0 kmh 29.56 in1001.0 mb 0.00 in0.0 mm 0.00 in0.0 mm 0.00 in0.0 mm
11:49 AM 72.9°F22.7°C -165.5°F-109.7°C - Calm Calm 2.0 mph3.2 kmh 29.56 in1001.0 mb 0.00 in0.0 mm 0.00 in0.0 mm 0.00 in0.0 mm
12:04 PM 73.0°F22.8°C -165.5°F-109.7°C - Calm Calm 2.8 mph4.5 kmh 29.56 in1001.0 mb 0.00 in0.0 mm 0.00 in0.0 mm 0.00 in0.0 mm
12:19 PM 73.0°F22.8°C -165.5°F-109.7°C - Calm Calm 1.4 mph2.3 kmh 29.56 in1001.0 mb 0.00 in0.0 mm 0.00 in0.0 mm 0.00 in0.0 mm
12:34 PM 73.6°F23.1°C -165.4°F-109.7°C - Calm Calm 0.6 mph1.0 kmh 29.55 in1000.7 mb 0.00 in0.0 mm 0.00 in0.0 mm 0.00 in0.0 mm
12:49 PM 73.6°F23.1°C -165.4°F-109.7°C - 1.4 mph N2.3 kmh N 3.4 mph5.5 kmh 29.55 in1000.7 mb 0.00 in0.0 mm 0.00 in0.0 mm 0.00 in0.0 mm
01:04 PM 73.6°F23.1°C -165.4°F-109.7°C - Calm Calm 2.0 mph3.2 kmh 29.55 in1000.7 mb 0.00 in0.0 mm 0.00 in0.0 mm 0.00 in0.0 mm
01:19 PM 73.8°F23.2°C -165.4°F-109.7°C - 0.6 mph N1.0 kmh N 2.0 mph3.2 kmh 29.55 in1000.7 mb 0.00 in0.0 mm 0.00 in0.0 mm 0.00 in0.0 mm
01:34 PM 74.3°F23.5°C -165.4°F-109.7°C - 2.0 mph N3.2 kmh N 4.0 mph6.4 kmh 29.55 in1000.7 mb 0.00 in0.0 mm 0.00 in0.0 mm 0.00 in0.0 mm
01:49 PM 74.7°F23.7°C -165.3°F-109.6°C - Calm Calm 0.6 mph1.0 kmh 29.55 in1000.7 mb 0.00 in0.0 mm 0.00 in0.0 mm 0.00 in0.0 mm
02:04 PM 73.2°F22.9°C -165.5°F-109.7°C - Calm Calm 1.4 mph2.3 kmh 29.55 in1000.7 mb 0.00 in0.0 mm 0.00 in0.0 mm 0.00 in0.0 mm
02:19 PM 74.3°F23.5°C -165.4°F-109.7°C - Calm Calm 1.4 mph2.3 kmh 29.54 in1000.3 mb 0.00 in0.0 mm 0.00 in0.0 mm 0.00 in0.0 mm
02:34 PM 73.2°F22.9°C -165.5°F-109.7°C - Calm Calm 1.4 mph2.3 kmh 29.54 in1000.3 mb 0.00 in0.0 mm 0.00 in0.0 mm 0.00 in0.0 mm
02:49 PM 73.4°F23.0°C -165.5°F-109.7°C - Calm Calm 0.6 mph1.0 kmh 29.54 in1000.3 mb 0.00 in0.0 mm 0.00 in0.0 mm 0.00 in0.0 mm
03:04 PM 72.3°F22.4°C -165.6°F-109.8°C - Calm Calm 1.4 mph2.3 kmh 29.54 in1000.3 mb 0.00 in0.0 mm 0.00 in0.0 mm 0.00 in0.0 mm
03:19 PM 72.1°F22.3°C -165.6°F-109.8°C - Calm Calm 0.6 mph1.0 kmh 29.54 in1000.3 mb 0.00 in0.0 mm 0.00 in0.0 mm 0.00 in0.0 mm
03:34 PM 72.9°F22.7°C -165.5°F-109.7°C - Calm Calm 1.4 mph2.3 kmh 29.53 in1000.0 mb 0.00 in0.0 mm 0.00 in0.0 mm 0.00 in0.0 mm
03:49 PM 72.3°F22.4°C -165.6°F-109.8°C - Calm Calm 0.6 mph1.0 kmh 29.53 in1000.0 mb 0.00 in0.0 mm 0.00 in0.0 mm 0.00 in0.0 mm
04:04 PM 71.6°F22.0°C -165.6°F-109.8°C - Calm Calm -- 29.53 in1000.0 mb 0.00 in0.0 mm 0.00 in0.0 mm 0.00 in0.0 mm
04:19 PM 71.6°F22.0°C -165.6°F-109.8°C - Calm Calm 0.6 mph1.0 kmh 29.53 in1000.0 mb 0.00 in0.0 mm 0.00 in0.0 mm 0.00 in0.0 mm
04:34 PM 71.1°F21.7°C -165.7°F-109.8°C - Calm Calm 0.6 mph1.0 kmh 29.54 in1000.3 mb 0.00 in0.0 mm 0.00 in0.0 mm 0.00 in0.0 mm
04:49 PM 70.9°F21.6°C -165.7°F-109.8°C - Calm Calm 0.6 mph1.0 kmh 29.53 in1000.0 mb 0.00 in0.0 mm 0.00 in0.0 mm 0.00 in0.0 mm
05:04 PM 71.1°F21.7°C -165.7°F-109.8°C - Calm Calm 0.6 mph1.0 kmh 29.54 in1000.3 mb 0.00 in0.0 mm 0.00 in0.0 mm 0.00 in0.0 mm
05:19 PM 70.3°F21.3°C -165.8°F-109.9°C - Calm Calm -- 29.53 in1000.0 mb 0.00 in0.0 mm 0.00 in0.0 mm 0.00 in0.0 mm
05:34 PM 69.8°F21.0°C -165.8°F-109.9°C - Calm Calm 0.6 mph1.0 kmh 29.53 in1000.0 mb 0.00 in0.0 mm 0.00 in0.0 mm 0.00 in0.0 mm
05:49 PM 69.6°F20.9°C -165.8°F-109.9°C - Calm Calm 0.6 mph1.0 kmh 29.54 in1000.3 mb 0.00 in0.0 mm 0.00 in0.0 mm 0.00 in0.0 mm
06:04 PM 69.3°F20.7°C -165.9°F-109.9°C - Calm Calm 0.6 mph1.0 kmh 29.54 in1000.3 mb 0.00 in0.0 mm 0.00 in0.0 mm 0.00 in0.0 mm
06:19 PM 68.9°F20.5°C -165.9°F-109.9°C - Calm Calm 0.6 mph1.0 kmh 29.54 in1000.3 mb 0.00 in0.0 mm 0.00 in0.0 mm 0.00 in0.0 mm
06:34 PM 68.7°F20.4°C -165.9°F-109.9°C - Calm Calm -- 29.54 in1000.3 mb 0.00 in0.0 mm 0.00 in0.0 mm 0.00 in0.0 mm
06:49 PM 68.5°F20.3°C -165.9°F-109.9°C - Calm Calm 0.6 mph1.0 kmh 29.54 in1000.3 mb 0.00 in0.0 mm 0.00 in0.0 mm 0.00 in0.0 mm
07:04 PM 68.2°F20.1°C -166.0°F-110.0°C - Calm Calm -- 29.54 in1000.3 mb 0.00 in0.0 mm 0.00 in0.0 mm 0.00 in0.0 mm
07:19 PM 67.6°F19.8°C -166.0°F-110.0°C - Calm Calm 1.4 mph2.3 kmh 29.55 in1000.7 mb 0.00 in0.0 mm 0.00 in0.0 mm 0.00 in0.0 mm
07:34 PM 67.1°F19.5°C -166.1°F-110.1°C - Calm Calm 0.6 mph1.0 kmh 29.54 in1000.3 mb 0.00 in0.0 mm 0.00 in0.0 mm 0.00 in0.0 mm
07:49 PM 66.4°F19.1°C -166.2°F-110.1°C - Calm Calm -- 29.55 in1000.7 mb 0.00 in0.0 mm 0.00 in0.0 mm 0.00 in0.0 mm
08:04 PM 66.4°F19.1°C -166.2°F-110.1°C - Calm Calm 1.4 mph2.3 kmh 29.56 in1001.0 mb 0.00 in0.0 mm 0.00 in0.0 mm 0.00 in0.0 mm
08:19 PM 66.2°F19.0°C -166.2°F-110.1°C - Calm Calm 0.6 mph1.0 kmh 29.55 in1000.7 mb 0.00 in0.0 mm 0.00 in0.0 mm 0.00 in0.0 mm
08:34 PM 65.7°F18.7°C -166.2°F-110.1°C - Calm Calm 1.4 mph2.3 kmh 29.56 in1001.0 mb 0.00 in0.0 mm 0.00 in0.0 mm 0.00 in0.0 mm
08:49 PM 65.1°F18.4°C -166.3°F-110.2°C - Calm Calm 1.4 mph2.3 kmh 29.56 in1001.0 mb 0.00 in0.0 mm 0.00 in0.0 mm 0.00 in0.0 mm
09:04 PM 65.1°F18.4°C -166.3°F-110.2°C - Calm Calm 0.6 mph1.0 kmh 29.56 in1001.0 mb 0.00 in0.0 mm 0.00 in0.0 mm 0.00 in0.0 mm
09:19 PM 64.6°F18.1°C -166.3°F-110.2°C - Calm Calm 1.4 mph2.3 kmh 29.57 in1001.4 mb 0.00 in0.0 mm 0.00 in0.0 mm 0.00 in0.0 mm
09:34 PM 64.2°F17.9°C -166.4°F-110.2°C - Calm Calm 1.4 mph2.3 kmh 29.56 in1001.0 mb 0.00 in0.0 mm 0.00 in0.0 mm 0.00 in0.0 mm
09:49 PM 63.7°F17.6°C -166.4°F-110.2°C - Calm Calm 0.6 mph1.0 kmh 29.56 in1001.0 mb 0.00 in0.0 mm 0.00 in0.0 mm 0.00 in0.0 mm
10:04 PM 63.1°F17.3°C -166.5°F-110.3°C - Calm Calm 0.6 mph1.0 kmh 29.56 in1001.0 mb 0.00 in0.0 mm 0.00 in0.0 mm 0.00 in0.0 mm
10:19 PM 63.0°F17.2°C -166.5°F-110.3°C - Calm Calm -- 29.55 in1000.7 mb 0.00 in0.0 mm 0.00 in0.0 mm 0.00 in0.0 mm
10:34 PM 62.8°F17.1°C -166.5°F-110.3°C - Calm Calm -- 29.55 in1000.7 mb 0.00 in0.0 mm 0.00 in0.0 mm 0.00 in0.0 mm
10:49 PM 62.2°F16.8°C -166.6°F-110.3°C - Calm Calm -- 29.55 in1000.7 mb 0.00 in0.0 mm 0.00 in0.0 mm 0.00 in0.0 mm
11:04 PM 62.2°F16.8°C -166.6°F-110.3°C - Calm Calm 1.4 mph2.3 kmh 29.55 in1000.7 mb 0.00 in0.0 mm 0.00 in0.0 mm 0.00 in0.0 mm
11:19 PM 62.2°F16.8°C -166.6°F-110.3°C - Calm Calm 1.4 mph2.3 kmh 29.55 in1000.7 mb 0.00 in0.0 mm 0.00 in0.0 mm 0.00 in0.0 mm
11:34 PM 61.9°F16.6°C -166.6°F-110.3°C - Calm Calm 0.6 mph1.0 kmh 29.55 in1000.7 mb 0.00 in0.0 mm 0.00 in0.0 mm 0.00 in0.0 mm
11:49 PM 61.5°F16.4°C -166.6°F-110.3°C - Calm Calm -- 29.55 in1000.7 mb 0.00 in0.0 mm 0.00 in0.0 mm 0.00 in0.0 mm